createdAt,value
2018-04-06T06:36:29.443Z,11.34
2018-04-06T06:38:58.667Z,11.28
2018-04-06T06:41:28.330Z,11.31
2018-04-06T06:44:00.965Z,11.36
2018-04-06T06:46:30.977Z,11.25
2018-04-06T06:49:13.705Z,11.23
2018-04-06T06:51:42.191Z,11.17
2018-04-06T06:54:09.868Z,11.21
2018-04-06T06:56:38.502Z,11.29
2018-04-06T06:59:16.497Z,11.22
2018-04-06T07:01:45.118Z,11.24
2018-04-06T07:04:13.437Z,11.19
2018-04-06T08:01:37.270Z,11.92
2018-04-06T08:04:04.987Z,11.86
2018-04-06T08:06:32.825Z,11.71
2018-04-06T08:09:00.540Z,11.72
2018-04-06T08:11:28.251Z,11.66
2018-04-06T08:13:55.956Z,11.58
2018-04-06T08:16:23.644Z,11.54
2018-04-06T08:18:51.372Z,11.52
2018-04-06T08:21:19.104Z,11.56
2018-04-06T08:23:46.871Z,11.48
2018-04-06T08:26:14.695Z,11.55
2018-04-06T08:28:42.433Z,11.50
2018-04-06T08:31:10.178Z,11.51
2018-04-06T08:33:37.859Z,11.61
2018-04-06T08:36:07.301Z,11.61
2018-04-06T08:38:35.070Z,11.45
2018-04-06T08:41:03.469Z,11.28
2018-04-06T08:43:31.137Z,11.39
2018-04-06T08:45:59.825Z,11.47
2018-04-06T08:48:27.504Z,11.75
2018-04-06T08:50:55.983Z,11.80
2018-04-06T08:53:23.725Z,11.79
2018-04-06T08:55:51.503Z,11.89
2018-04-06T08:58:19.232Z,11.56
2018-04-06T09:00:46.998Z,11.49
2018-04-06T09:03:15.719Z,11.39
2018-04-06T09:05:43.412Z,11.68
2018-04-06T09:08:11.153Z,11.22
2018-04-06T09:10:38.882Z,11.27
2018-04-06T09:13:07.134Z,11.54
2018-04-06T09:15:35.087Z,11.75
2018-04-06T09:18:04.569Z,11.75
2018-04-06T09:20:32.284Z,11.95
2018-04-06T09:23:00.058Z,11.98
2018-04-06T09:25:28.509Z,12.12
2018-04-06T09:27:56.243Z,11.81
2018-04-06T09:30:23.980Z,11.98
2018-04-06T09:32:54.523Z,11.80
2018-04-06T09:35:22.272Z,12.05
2018-04-06T09:37:50.055Z,12.12
2018-04-06T09:40:17.799Z,12.16
2018-04-06T09:42:45.469Z,12.23
2018-04-06T09:45:13.190Z,12.13
2018-04-06T09:47:40.926Z,12.06
2018-04-06T09:50:08.654Z,12.17
2018-04-06T09:52:37.065Z,12.22
2018-04-06T09:55:04.729Z,12.32
2018-04-06T09:57:32.422Z,12.26
2018-04-06T10:00:00.144Z,12.19
2018-04-06T10:02:27.922Z,12.23
2018-04-06T10:04:55.703Z,12.40
2018-04-06T10:07:23.474Z,12.40
2018-04-06T10:09:51.246Z,12.47
2018-04-06T10:12:18.932Z,12.36
2018-04-06T10:14:47.375Z,12.33
2018-04-06T10:17:15.142Z,12.27
2018-04-06T10:19:42.943Z,12.10
2018-04-06T10:22:10.633Z,11.94
2018-04-06T10:24:38.316Z,11.98
2018-04-06T10:27:06.019Z,12.18
2018-04-06T10:29:34.484Z,12.47
2018-04-06T10:32:02.205Z,12.50
2018-04-06T10:34:29.921Z,12.49
2018-04-06T10:36:57.589Z,12.44
2018-04-06T10:39:25.307Z,12.59
2018-04-06T10:41:53.067Z,12.50
2018-04-06T10:44:21.476Z,12.55
2018-04-06T10:46:49.191Z,12.69
2018-04-06T10:49:16.942Z,12.86
2018-04-06T10:51:44.784Z,13.04
2018-04-06T10:54:12.498Z,13.19
2018-04-06T10:56:40.181Z,13.37
2018-04-06T10:59:07.874Z,13.45
2018-04-06T11:01:35.547Z,13.54
2018-04-06T11:04:03.255Z,12.96
2018-04-06T11:06:31.035Z,13.25
2018-04-06T11:09:00.267Z,13.06
2018-04-06T11:11:28.275Z,12.99
2018-04-06T11:13:57.374Z,12.86
2018-04-06T11:16:26.487Z,12.85
2018-04-06T11:18:55.641Z,13.52
2018-04-06T11:21:23.478Z,13.48
2018-04-06T11:23:51.226Z,13.92
2018-04-06T11:26:19.027Z,13.30
2018-04-06T11:28:46.726Z,13.04
2018-04-06T11:31:14.518Z,13.15
2018-04-06T11:33:42.384Z,13.71
2018-04-06T11:36:10.145Z,13.90
2018-04-06T11:38:37.845Z,13.76
2018-04-06T11:41:05.613Z,13.52
2018-04-06T11:43:33.371Z,13.56
2018-04-06T11:46:01.074Z,13.47
2018-04-06T11:48:28.879Z,13.51
2018-04-06T11:50:56.611Z,13.62
2018-04-06T11:53:24.285Z,13.62
2018-04-06T11:55:52.026Z,13.64
2018-04-06T11:58:19.904Z,13.76
2018-04-06T12:00:47.585Z,13.50
2018-04-06T12:03:15.313Z,13.04
2018-04-06T12:05:43.120Z,13.07
2018-04-06T12:08:10.841Z,13.06
2018-04-06T12:10:38.499Z,12.99
2018-04-06T12:13:06.309Z,12.99
2018-04-06T12:15:34.022Z,13.01
2018-04-06T12:18:04.830Z,12.93
2018-04-06T12:20:32.705Z,12.79
2018-04-06T12:23:03.174Z,12.74
2018-04-06T12:25:30.939Z,12.82
2018-04-06T12:27:58.694Z,12.72
2018-04-06T12:30:26.401Z,12.71
2018-04-06T12:32:54.065Z,12.62
2018-04-06T12:35:21.729Z,12.54
2018-04-06T12:37:49.577Z,12.49
2018-04-06T12:40:17.256Z,12.31
2018-04-06T12:42:45.710Z,12.40
2018-04-06T12:45:13.409Z,12.44
2018-04-06T12:47:41.118Z,12.29
2018-04-06T12:50:08.803Z,12.35
2018-04-06T12:52:36.560Z,12.26
2018-04-06T12:55:05.091Z,12.20
2018-04-06T12:57:32.754Z,12.28
2018-04-06T13:00:00.515Z,12.23
2018-04-06T13:02:28.278Z,11.86
2018-04-06T13:04:55.951Z,11.94
2018-04-06T13:07:23.685Z,11.99
2018-04-06T13:09:51.386Z,12.05
2018-04-06T13:12:19.149Z,11.95
2018-04-06T13:14:46.868Z,11.97
2018-04-06T13:17:14.555Z,11.95
2018-04-06T13:19:42.340Z,11.95
2018-04-06T13:22:10.038Z,11.97
2018-04-06T13:24:39.027Z,11.96
2018-04-06T13:27:07.691Z,12.04
2018-04-06T13:29:35.460Z,11.98
2018-04-06T13:32:03.177Z,11.94
2018-04-06T13:34:30.906Z,12.00
2018-04-06T13:37:00.327Z,11.99
2018-04-06T13:39:28.056Z,11.82
2018-04-06T13:41:56.236Z,11.91
2018-04-06T13:44:23.972Z,11.86
2018-04-06T13:46:52.397Z,11.78
2018-04-06T13:49:20.167Z,11.66
2018-04-06T13:51:47.924Z,11.64
2018-04-06T13:54:15.608Z,11.62
2018-04-06T13:56:43.291Z,11.59
2018-04-06T13:59:11.464Z,11.58
2018-04-06T14:01:39.175Z,11.48
2018-04-06T14:04:06.835Z,11.34
2018-04-06T14:06:34.611Z,11.34
2018-04-06T14:09:02.354Z,11.21
2018-04-06T14:11:30.057Z,11.19
2018-04-06T14:13:57.801Z,11.12
2018-04-06T14:16:31.207Z,11.11
2018-04-06T14:18:58.924Z,11.05
2018-04-06T14:21:26.616Z,11.09
2018-04-06T14:23:54.380Z,11.14
2018-04-06T14:26:22.200Z,11.12
2018-04-06T14:28:54.380Z,11.06
2018-04-06T14:31:42.988Z,10.84
2018-04-06T14:34:31.901Z,10.97
2018-04-06T14:53:46.333Z,10.52
2018-04-06T14:56:15.049Z,10.54
2018-04-06T14:58:46.974Z,10.51
2018-04-06T15:01:29.129Z,10.48
2018-04-06T15:04:12.934Z,10.51
2018-04-06T15:06:40.657Z,10.35
2018-04-06T15:09:17.402Z,10.39
2018-04-06T15:11:45.182Z,10.25
2018-04-06T15:14:38.652Z,10.15
2018-04-06T15:17:06.365Z,10.02
2018-04-06T15:19:34.175Z,10.32
2018-04-06T15:25:21.560Z,10.12
2018-04-06T15:30:44.773Z,10.06
2018-04-06T15:33:12.503Z,9.96
2018-04-06T15:35:40.244Z,9.99
2018-04-06T15:38:07.969Z,9.96
2018-04-06T15:43:21.487Z,9.88
2018-04-06T15:45:49.208Z,9.93
2018-04-06T15:48:16.962Z,9.84
2018-04-06T15:50:44.843Z,9.87
2018-04-06T15:53:12.800Z,9.80
2018-04-06T15:55:40.682Z,9.77
2018-04-06T15:58:08.631Z,9.79
2018-04-06T16:00:40.197Z,9.52
2018-04-06T16:03:08.249Z,9.67
2018-04-06T16:05:36.235Z,9.49
2018-04-06T16:08:04.021Z,9.67
2018-04-06T16:13:48.505Z,9.62
2018-04-06T16:16:16.238Z,9.58
2018-04-06T16:18:44.124Z,9.62
2018-04-06T16:21:11.790Z,9.58
2018-04-06T16:23:40.244Z,9.45
2018-04-06T16:56:01.163Z,9.04
2018-04-06T16:58:28.893Z,9.10
2018-04-06T17:00:56.604Z,9.14
2018-04-06T17:03:25.757Z,9.00
2018-04-06T17:06:02.284Z,9.02
2018-04-06T17:14:50.682Z,8.95
2018-04-06T18:00:22.586Z,8.68
2018-04-06T18:56:13.593Z,8.67
2018-04-06T18:58:49.020Z,8.85
2018-04-06T19:07:18.308Z,8.86
2018-04-06T19:09:52.010Z,8.96
2018-04-06T19:12:25.107Z,8.96
2018-04-06T19:31:27.046Z,8.88
2018-04-06T19:33:54.714Z,8.93
2018-04-06T19:36:24.006Z,8.98
2018-04-06T19:38:51.800Z,8.99
2018-04-06T19:41:31.845Z,8.99
2018-04-06T19:47:05.587Z,9.07
2018-04-06T19:55:59.222Z,9.06
2018-04-06T19:58:26.992Z,9.03
2018-04-06T20:00:54.676Z,9.11
2018-04-06T20:03:22.395Z,9.01
2018-04-06T20:05:50.104Z,8.91
2018-04-06T20:16:49.094Z,8.94
2018-04-06T20:19:16.811Z,8.93
2018-04-06T20:21:51.433Z,8.94
2018-04-06T20:24:19.571Z,8.87
2018-04-06T20:26:47.295Z,8.91
2018-04-06T20:29:15.044Z,8.97
2018-04-06T20:31:42.767Z,9.01
2018-04-06T20:34:10.675Z,8.92
2018-04-06T21:00:59.790Z,8.80
2018-04-06T21:03:27.460Z,8.96
2018-04-06T21:05:55.688Z,9.02
2018-04-06T21:08:23.397Z,8.97
2018-04-06T21:10:51.519Z,8.96
2018-04-06T21:13:19.232Z,8.96
2018-04-06T21:15:46.990Z,8.95
2018-04-06T21:18:14.876Z,8.99
2018-04-06T21:20:42.617Z,9.03
2018-04-06T21:23:10.359Z,9.01
2018-04-06T21:25:38.698Z,9.03
2018-04-06T21:28:07.101Z,9.05
2018-04-06T21:30:34.852Z,8.96
2018-04-06T21:33:02.559Z,8.77
2018-04-06T21:35:30.355Z,8.81
2018-04-06T21:37:58.178Z,8.91
2018-04-06T21:40:25.912Z,9.07
2018-04-06T21:42:53.620Z,9.04
2018-04-06T21:45:21.375Z,9.03
2018-04-06T21:47:49.224Z,8.96
2018-04-06T21:50:17.041Z,8.85
2018-04-06T21:52:44.942Z,8.81
2018-04-06T21:55:12.731Z,8.97
2018-04-06T21:57:42.272Z,8.81
2018-04-06T22:00:12.728Z,8.95
2018-04-06T22:02:40.523Z,9.00
2018-04-06T22:05:08.314Z,8.96
2018-04-06T22:07:36.022Z,8.96
2018-04-06T22:10:03.816Z,8.77
2018-04-06T22:12:31.628Z,8.89
2018-04-06T22:14:59.299Z,8.98
2018-04-06T22:17:28.021Z,8.99
2018-04-06T22:19:55.731Z,8.92
2018-04-06T22:22:23.515Z,9.02
2018-04-06T22:24:51.278Z,9.04
2018-04-06T22:27:18.986Z,9.08
2018-04-06T22:29:46.768Z,9.01
2018-04-06T22:32:14.509Z,8.98
2018-04-06T22:34:42.552Z,8.76
2018-04-06T22:37:10.251Z,8.96
2018-04-06T22:39:38.870Z,9.01
2018-04-06T22:42:06.553Z,8.90
2018-04-06T22:44:34.279Z,9.00
2018-04-06T22:47:02.033Z,9.04
2018-04-06T22:49:29.795Z,8.98
2018-04-06T22:51:57.581Z,9.00
2018-04-06T22:54:25.296Z,9.07
2018-04-06T22:56:53.983Z,8.94
2018-04-06T22:59:21.666Z,8.97
2018-04-06T23:01:49.362Z,8.89
2018-04-06T23:04:17.141Z,8.92
2018-04-06T23:06:44.910Z,8.81
2018-04-06T23:09:12.593Z,8.88
2018-04-06T23:11:40.393Z,8.73
2018-04-06T23:14:08.084Z,8.72
2018-04-06T23:16:35.897Z,8.81
2018-04-06T23:19:03.653Z,8.83
2018-04-06T23:21:31.355Z,8.80
2018-04-06T23:23:59.039Z,8.71
2018-04-06T23:26:26.753Z,8.79
2018-04-06T23:28:54.452Z,8.78
2018-04-06T23:31:22.172Z,8.75
2018-04-06T23:33:50.035Z,8.75
2018-04-06T23:38:44.689Z,8.44
2018-04-06T23:41:12.403Z,8.71
2018-04-06T23:43:40.082Z,8.80
2018-04-06T23:46:07.813Z,8.82
2018-04-06T23:48:35.495Z,8.81
2018-04-06T23:51:03.216Z,8.80
2018-04-06T23:53:31.890Z,8.76
2018-04-06T23:55:59.672Z,8.79
2018-04-06T23:58:27.455Z,8.87
